Time;durP1;ratioP1;P1;durP2;ratioP2;P2;SDS_P1;SDS_P2;PMS_P1;PMS_P2;Temp;Humidity;BMP_temperature;BMP_pressure;BME280_temperature;BME280_humidity;BME280_pressure;Samples;Min_cycle;Max_cycle;Signal;HPM_P1;HPM_P2
2022/06/30 00:00:00;;;;;;;;;0.33;0.33;;;;;23.84;43.08;100677.91;2084216;28;46629;-53
2022/06/30 00:01:00;;;;;;;;;0.00;0.00;;;;;23.82;43.12;100679.88;2081437;28;46132;-51
2022/06/30 00:02:01;;;;;;;;;0.33;0.33;;;;;23.81;43.35;100673.59;2078295;28;46651;-50
2022/06/30 00:03:02;;;;;;;;;0.00;0.00;;;;;23.80;43.07;100668.28;2086046;28;46779;-51
2022/06/30 00:04:03;;;;;;;;;0.00;0.00;;;;;23.79;43.20;100670.13;2080113;28;47467;-51
2022/06/30 00:05:04;;;;;;;;;0.33;0.33;;;;;23.79;42.72;100675.56;2086699;28;47388;-50
2022/06/30 00:06:04;;;;;;;;;0.00;0.00;;;;;23.78;42.74;100673.84;2087525;28;47980;-50
2022/06/30 00:07:05;;;;;;;;;0.00;0.00;;;;;23.75;42.50;100669.47;2083527;28;47162;-50
2022/06/30 00:08:05;;;;;;;;;0.00;0.00;;;;;23.74;42.70;100666.91;2084045;28;45296;-48
2022/06/30 00:09:05;;;;;;;;;0.00;0.00;;;;;23.72;42.69;100668.88;2083568;28;48111;-50
2022/06/30 00:10:10;;;;;;;;;0.00;0.00;;;;;23.70;42.88;100662.72;2080368;28;47541;-49
2022/06/30 00:11:10;;;;;;;;;0.00;0.00;;;;;23.68;42.87;100668.25;2084724;28;47889;-49
2022/06/30 00:12:11;;;;;;;;;0.00;0.00;;;;;23.66;42.88;100667.50;2080264;28;47864;-47
2022/06/30 00:13:12;;;;;;;;;0.00;0.00;;;;;23.66;42.75;100675.63;2078645;28;47719;-48
2022/06/30 00:14:12;;;;;;;;;0.00;0.00;;;;;23.65;42.97;100659.50;2079225;28;47760;-49
2022/06/30 00:15:13;;;;;;;;;0.00;0.00;;;;;23.64;43.01;100666.78;2083669;28;47543;-49
2022/06/30 00:16:13;;;;;;;;;0.00;0.00;;;;;23.63;43.12;100667.75;2082819;28;47361;-51
2022/06/30 00:17:14;;;;;;;;;0.00;0.00;;;;;23.61;42.91;100668.81;2083601;28;47663;-48
2022/06/30 00:18:14;;;;;;;;;13.50;12.00;;;;;23.60;42.82;100669.81;2085337;28;47425;-53
2022/06/30 00:19:14;;;;;;;;;2.33;2.33;;;;;23.58;43.06;100669.94;2085878;28;47254;-51
2022/06/30 00:20:15;;;;;;;;;1.00;1.00;;;;;23.57;43.30;100675.44;2080579;28;47912;-51
2022/06/30 00:21:15;;;;;;;;;0.33;0.00;;;;;23.55;43.09;100678.28;2086696;28;48361;-50
2022/06/30 00:22:16;;;;;;;;;0.00;0.00;;;;;23.54;43.21;100679.25;2082432;28;47545;-49
2022/06/30 00:23:16;;;;;;;;;0.00;0.00;;;;;23.54;43.24;100679.25;2080571;28;47064;-49
2022/06/30 00:24:16;;;;;;;;;0.00;0.00;;;;;23.53;43.23;100685.66;2081760;28;47871;-52
2022/06/30 00:25:17;;;;;;;;;3.00;2.00;;;;;23.52;43.32;100686.63;2084386;28;47244;-48
2022/06/30 00:26:18;;;;;;;;;0.75;0.75;;;;;23.52;43.48;100692.06;2086726;28;47364;-52
2022/06/30 00:27:18;;;;;;;;;0.33;0.00;;;;;23.51;43.45;100684.91;2086059;28;47507;-51
2022/06/30 00:28:19;;;;;;;;;0.00;0.00;;;;;23.50;43.38;100683.16;2081150;28;48045;-48
2022/06/30 00:29:20;;;;;;;;;0.00;0.00;;;;;23.49;43.75;100684.13;2090284;28;48066;-47
2022/06/30 00:30:20;;;;;;;;;0.00;0.00;;;;;23.48;43.79;100685.13;2084935;28;47770;-49
2022/06/30 00:31:21;;;;;;;;;0.00;0.00;;;;;23.45;43.70;100680.81;2079346;28;47374;-50
2022/06/30 00:32:21;;;;;;;;;0.00;0.00;;;;;23.45;43.36;100678.09;2081328;28;47572;-47
2022/06/30 00:33:21;;;;;;;;;0.00;0.00;;;;;23.42;43.79;100681.03;2082885;28;47361;-52
2022/06/30 00:34:23;;;;;;;;;0.00;0.00;;;;;23.39;43.77;100677.72;2087025;28;45593;-51
2022/06/30 00:35:24;;;;;;;;;0.00;0.00;;;;;23.37;44.04;100677.81;2087844;28;46684;-49
2022/06/30 00:36:24;;;;;;;;;0.00;0.00;;;;;23.36;43.93;100678.78;2080764;28;47108;-48
2022/06/30 00:37:24;;;;;;;;;0.00;0.00;;;;;23.37;43.55;100682.34;2085837;28;47642;-48
2022/06/30 00:38:25;;;;;;;;;0.67;0.67;;;;;23.34;44.18;100690.72;2085287;28;47320;-47
2022/06/30 00:39:25;;;;;;;;;0.67;0.00;;;;;23.34;43.82;100694.28;2083800;28;47762;-50
2022/06/30 00:40:26;;;;;;;;;0.00;0.00;;;;;23.33;43.96;100694.41;2081460;28;47732;-49
2022/06/30 00:41:26;;;;;;;;;0.00;0.00;;;;;23.32;43.86;100698.09;2084179;28;47561;-48
2022/06/30 00:42:29;;;;;;;;;0.33;0.33;;;;;23.30;44.13;100698.22;2098610;27;47758;-48
2022/06/30 00:43:30;;;;;;;;;0.75;0.75;;;;;23.29;44.14;100701.91;2104142;27;47712;-49
2022/06/30 00:44:31;;;;;;;;;0.00;0.00;;;;;23.27;43.87;100692.19;2083276;28;48187;-49
2022/06/30 00:45:32;;;;;;;;;1.00;1.00;;;;;23.26;44.46;100693.16;2082241;28;47520;-49
2022/06/30 00:46:32;;;;;;;;;0.00;0.00;;;;;23.25;44.19;100694.09;2080238;28;48008;-48
2022/06/30 00:47:32;;;;;;;;;0.00;0.00;;;;;23.23;44.75;100694.22;2082597;28;47305;-48
2022/06/30 00:48:34;;;;;;;;;0.67;0.67;;;;;23.22;44.49;100699.75;2083659;28;47094;-49
2022/06/30 00:49:34;;;;;;;;;0.00;0.00;;;;;23.21;44.42;100693.47;2083417;28;47605;-49
2022/06/30 00:50:35;;;;;;;;;1.00;1.00;;;;;23.20;43.98;100705.28;2083288;28;47975;-49
2022/06/30 00:51:35;;;;;;;;;0.00;0.00;;;;;23.18;44.24;100705.41;2085870;28;47711;-50
2022/06/30 00:52:36;;;;;;;;;0.00;0.00;;;;;23.19;44.05;100700.88;2081077;28;47566;-47
2022/06/30 00:53:39;;;;;;;;;0.00;0.00;;;;;23.17;44.47;100697.41;2083349;28;47400;-52
2022/06/30 00:54:41;;;;;;;;;0.00;0.00;;;;;23.16;43.88;100699.25;2084396;28;47457;-51
2022/06/30 00:55:46;;;;;;;;;0.00;0.00;;;;;23.15;43.97;100702.94;2085022;28;48218;-51
2022/06/30 00:56:47;;;;;;;;;0.00;0.00;;;;;23.14;43.69;100700.34;2079922;28;47955;-49
2022/06/30 00:57:48;;;;;;;;;0.00;0.00;;;;;23.12;43.98;100705.00;2088595;28;47920;-51
2022/06/30 00:58:51;;;;;;;;;0.00;0.00;;;;;23.09;44.01;100707.94;2087445;28;47172;-52
2022/06/30 00:59:53;;;;;;;;;1.25;1.25;;;;;23.07;43.84;100708.06;2080582;28;47960;-50
2022/06/30 01:00:54;;;;;;;;;0.00;0.00;;;;;23.05;43.59;100701.03;2082443;28;47553;-50
2022/06/30 01:01:55;;;;;;;;;0.25;0.25;;;;;23.05;43.72;100698.31;2079215;28;47448;-49
2022/06/30 01:02:57;;;;;;;;;0.75;0.00;;;;;23.03;44.26;100698.44;2083951;28;47798;-54
2022/06/30 01:03:59;;;;;;;;;0.00;0.00;;;;;23.01;44.18;100691.41;2084230;28;47499;-52
2022/06/30 01:05:00;;;;;;;;;0.00;0.00;;;;;23.02;44.02;100679.59;2081922;28;47944;-50
2022/06/30 01:06:01;;;;;;;;;0.00;0.00;;;;;23.00;43.63;100674.31;2087065;28;47390;-50
2022/06/30 01:07:03;;;;;;;;;0.00;0.00;;;;;23.00;44.07;100674.31;2083864;28;47971;-52
2022/06/30 01:08:04;;;;;;;;;0.25;0.25;;;;;22.99;44.04;100671.69;2082355;28;47154;-51
2022/06/30 01:09:06;;;;;;;;;0.75;0.75;;;;;22.99;44.23;100666.28;2081917;28;46445;-52
2022/06/30 01:12:47;;;;;;;;;0.00;0.00;;;;;22.94;44.14;100682.88;2081203;28;48074;-51
2022/06/30 01:13:48;;;;;;;;;0.00;0.00;;;;;22.93;43.99;100681.16;2082905;28;47648;-50
2022/06/30 01:14:52;;;;;;;;;0.25;0.00;;;;;22.92;43.81;100678.56;2088104;28;47558;-50
2022/06/30 01:15:52;;;;;;;;;1.75;1.75;;;;;22.90;43.92;100678.66;2083584;28;45578;-49
2022/06/30 01:16:52;;;;;;;;;1.00;1.00;;;;;22.88;44.12;100675.22;2083116;28;48259;-50
2022/06/30 01:17:53;;;;;;;;;2.00;2.00;;;;;22.86;44.12;100672.59;2083322;28;45833;-49
2022/06/30 01:18:53;;;;;;;;;0.67;0.67;;;;;22.85;44.12;100678.13;2084977;28;47560;-50
2022/06/30 01:19:55;;;;;;;;;2.00;2.00;;;;;22.84;44.41;100674.56;2079844;28;47637;-49
2022/06/30 01:20:56;;;;;;;;;1.25;0.25;;;;;22.82;44.28;100671.06;2086537;28;47994;-47
2022/06/30 01:22:03;;;;;;;;;1.00;1.00;;;;;22.81;44.17;100680.16;2085660;28;47270;-48
2022/06/30 01:23:05;;;;;;;;;0.00;0.00;;;;;22.80;44.16;100688.41;2085266;28;47501;-50
2022/06/30 01:24:06;;;;;;;;;1.25;1.25;;;;;22.79;44.72;100690.25;2085750;28;47530;-49
2022/06/30 01:25:08;;;;;;;;;0.33;0.33;;;;;22.79;44.42;100689.38;2083749;28;47680;-48
2022/06/30 01:26:08;;;;;;;;;1.00;1.00;;;;;22.77;44.38;100686.78;2082835;28;47804;-49
2022/06/30 01:27:09;;;;;;;;;0.67;0.67;;;;;22.74;44.65;100680.72;2088741;28;47689;-49
2022/06/30 01:28:09;;;;;;;;;1.33;0.33;;;;;22.74;44.54;100675.31;2088543;28;47759;-49
2022/06/30 01:29:09;;;;;;;;;0.00;0.00;;;;;22.73;44.73;100670.88;2082115;28;47469;-48
2022/06/30 01:30:10;;;;;;;;;1.33;1.33;;;;;22.73;45.00;100679.84;2086934;28;47254;-51
2022/06/30 01:31:11;;;;;;;;;0.00;0.00;;;;;22.73;44.73;100677.16;2087814;28;47614;-52
2022/06/30 01:32:11;;;;;;;;;0.00;0.00;;;;;22.71;44.48;100671.00;2094711;28;47656;-51
2022/06/30 01:33:12;;;;;;;;;0.00;0.00;;;;;22.70;44.58;100671.09;2087884;28;47805;-50
2022/06/30 01:34:12;;;;;;;;;1.67;1.67;;;;;22.68;44.90;100668.50;2094698;28;47013;-49
2022/06/30 01:35:13;;;;;;;;;1.00;1.00;;;;;22.66;44.74;100669.59;2096465;28;47438;-50
2022/06/30 01:36:14;;;;;;;;;0.67;0.67;;;;;22.64;45.13;100664.31;2083102;28;47566;-50
2022/06/30 01:37:14;;;;;;;;;0.00;0.00;;;;;22.63;44.76;100669.84;2087124;28;47368;-48
2022/06/30 01:38:15;;;;;;;;;0.00;0.00;;;;;22.62;44.96;100674.38;2083263;28;47702;-50
2022/06/30 01:39:15;;;;;;;;;0.67;0.67;;;;;22.61;45.13;100686.16;2084073;28;47353;-51
2022/06/30 01:40:17;;;;;;;;;1.33;1.00;;;;;22.60;44.59;100681.72;2084080;28;47984;-51
2022/06/30 01:41:17;;;;;;;;;0.75;0.75;;;;;22.59;44.85;100688.09;2086338;28;45687;-51
2022/06/30 01:42:18;;;;;;;;;0.00;0.00;;;;;22.59;44.65;100683.56;2085691;28;47542;-51
2022/06/30 01:43:18;;;;;;;;;0.00;0.00;;;;;22.57;45.05;100680.09;2089300;28;47795;-51
2022/06/30 01:44:19;;;;;;;;;0.67;0.67;;;;;22.57;44.76;100669.28;2085979;28;47625;-50
2022/06/30 01:45:21;;;;;;;;;0.67;0.67;;;;;22.55;44.98;100673.09;2086408;28;46030;-49
2022/06/30 01:46:21;;;;;;;;;1.25;1.25;;;;;22.53;44.72;100675.91;2089433;28;47919;-51
2022/06/30 01:47:21;;;;;;;;;0.00;0.00;;;;;22.52;45.23;100676.03;2085767;28;47812;-51
2022/06/30 01:48:22;;;;;;;;;0.00;0.00;;;;;22.50;45.45;100673.44;2088925;28;47551;-48
2022/06/30 01:49:22;;;;;;;;;0.00;0.00;;;;;22.50;45.05;100683.38;2083668;28;47571;-49
2022/06/30 01:50:27;;;;;;;;;1.00;1.00;;;;;22.49;45.09;100687.94;2085645;28;47246;-51
2022/06/30 01:51:28;;;;;;;;;0.00;0.00;;;;;22.48;44.81;100688.88;2088169;28;47601;-48
2022/06/30 01:52:28;;;;;;;;;0.33;0.00;;;;;22.46;45.50;100679.16;2086361;28;47887;-51
2022/06/30 01:53:28;;;;;;;;;1.50;1.00;;;;;22.47;44.97;100678.16;2085217;28;47610;-53
2022/06/30 01:54:29;;;;;;;;;1.00;0.00;;;;;22.46;45.27;100681.84;2081824;28;47581;-52
2022/06/30 01:55:29;;;;;;;;;0.33;0.33;;;;;22.45;45.30;100693.66;2081893;28;45429;-48
2022/06/30 01:56:30;;;;;;;;;0.00;0.00;;;;;22.42;45.59;100693.88;2085643;28;47170;-52
2022/06/30 01:57:30;;;;;;;;;1.00;1.00;;;;;22.41;45.52;100684.03;2083266;28;47228;-52
2022/06/30 01:58:31;;;;;;;;;1.00;1.00;;;;;22.39;45.29;100684.16;2080498;28;47443;-48
2022/06/30 01:59:31;;;;;;;;;1.33;0.67;;;;;22.39;45.08;100689.56;2084680;28;47734;-50
2022/06/30 02:00:32;;;;;;;;;2.67;2.67;;;;;22.38;45.50;100678.84;2084139;28;47798;-50
2022/06/30 02:01:33;;;;;;;;;1.75;1.75;;;;;22.35;45.39;100674.50;2086463;28;47447;-48
2022/06/30 02:02:34;;;;;;;;;1.33;0.33;;;;;22.33;45.60;100671.91;2083783;28;47864;-52
2022/06/30 02:03:34;;;;;;;;;0.00;0.00;;;;;22.33;45.58;100679.16;2081692;28;49068;-52
2022/06/30 02:04:46;;;;;;;;;0.00;0.00;;;;;22.32;46.07;100686.41;2082377;28;47594;-51
2022/06/30 02:05:47;;;;;;;;;1.00;1.00;;;;;22.31;46.04;100692.78;2084215;28;47567;-53
2022/06/30 02:06:47;;;;;;;;;0.00;0.00;;;;;22.31;45.89;100686.53;2083237;28;48023;-51
2022/06/30 02:07:48;;;;;;;;;1.00;1.00;;;;;22.30;45.78;100685.66;2086145;28;47571;-52
2022/06/30 02:08:48;;;;;;;;;1.67;1.67;;;;;22.29;45.80;100686.63;2085420;28;47025;-52
2022/06/30 02:09:50;;;;;;;;;3.00;2.00;;;;;22.30;45.90;100690.19;2082990;28;47562;-52
2022/06/30 02:10:51;;;;;;;;;0.00;0.00;;;;;22.28;46.01;100692.16;2079697;28;47663;-49
2022/06/30 02:12:44;;;;;;;;;2.00;2.00;;;;;22.27;45.81;100693.13;2082222;28;47311;-52
2022/06/30 02:13:12;;;;;;;;;0.00;0.00;;;;;22.26;46.32;100696.81;2084873;28;48068;-50
2022/06/30 02:14:12;;;;;;;;;1.67;1.67;;;;;22.23;46.21;100694.28;2085819;28;47332;-49
2022/06/30 02:15:44;;;;;;;;;2.67;2.33;;;;;22.22;46.17;100700.69;2084742;28;47726;-53
2022/06/30 02:16:44;;;;;;;;;2.00;2.00;;;;;22.20;46.43;100689.13;2083742;28;46539;-53
2022/06/30 02:17:47;;;;;;;;;2.67;2.00;;;;;22.20;46.38;100697.22;2083167;28;47671;-49
2022/06/30 02:18:48;;;;;;;;;1.00;1.00;;;;;22.19;46.36;100690.94;2087109;28;47728;-51
2022/06/30 02:19:48;;;;;;;;;0.67;0.67;;;;;22.19;46.91;100688.25;2082545;28;47831;-52
2022/06/30 02:20:49;;;;;;;;;0.00;0.00;;;;;22.19;46.50;100684.69;2086869;28;46010;-49
2022/06/30 02:21:49;;;;;;;;;1.00;1.00;;;;;22.19;46.83;100684.69;2081392;28;47046;-52
2022/06/30 02:22:54;;;;;;;;;0.00;0.00;;;;;22.18;46.61;100674.84;2082011;28;47458;-50
2022/06/30 02:23:54;;;;;;;;;0.50;0.50;;;;;22.17;46.50;100673.13;2080582;28;47664;-51
2022/06/30 02:24:54;;;;;;;;;0.67;0.67;;;;;22.17;46.60;100675.81;2084153;28;47324;-52
2022/06/30 02:25:55;;;;;;;;;2.00;2.00;;;;;22.17;46.56;100673.97;2085978;28;48349;-50
2022/06/30 02:26:55;;;;;;;;;1.00;1.00;;;;;22.17;46.52;100673.97;2085530;28;47575;-52
2022/06/30 02:27:56;;;;;;;;;1.00;1.00;;;;;22.16;47.15;100672.25;2080856;28;47871;-52
2022/06/30 02:28:57;;;;;;;;;0.50;0.50;;;;;22.18;46.53;100664.03;2081981;28;47602;-53
2022/06/30 02:29:57;;;;;;;;;1.33;1.33;;;;;22.17;47.02;100665.88;2081627;28;47177;-52
2022/06/30 02:30:58;;;;;;;;;1.00;1.00;;;;;22.18;46.57;100666.75;2084711;28;47267;-49
2022/06/30 02:31:58;;;;;;;;;3.00;2.67;;;;;22.17;46.95;100668.56;2079900;28;47666;-51
2022/06/30 02:32:59;;;;;;;;;0.00;0.00;;;;;22.16;46.60;100672.25;2085490;28;47482;-49
2022/06/30 02:33:59;;;;;;;;;2.67;2.67;;;;;22.14;47.33;100676.91;2084796;28;47396;-52
2022/06/30 02:34:59;;;;;;;;;1.00;1.00;;;;;22.13;46.75;100677.88;2083700;28;47411;-50
2022/06/30 02:36:00;;;;;;;;;2.00;1.33;;;;;22.12;47.17;100676.16;2084850;28;47392;-52
2022/06/30 02:37:00;;;;;;;;;1.67;1.33;;;;;22.11;46.71;100674.44;2086426;28;47415;-51
2022/06/30 02:38:09;;;;;;;;;0.00;0.00;;;;;22.09;47.45;100670.94;2085247;28;47666;-48
2022/06/30 02:39:09;;;;;;;;;1.00;1.00;;;;;22.08;47.42;100661.09;2089051;28;47484;-50
2022/06/30 02:40:11;;;;;;;;;2.00;2.00;;;;;22.07;47.15;100672.03;2085587;28;48032;-48
2022/06/30 02:41:11;;;;;;;;;1.00;1.00;;;;;22.06;47.37;100667.59;2084817;28;47898;-50
2022/06/30 02:42:11;;;;;;;;;1.67;1.67;;;;;22.06;47.27;100681.13;2081747;28;47763;-49
2022/06/30 02:43:12;;;;;;;;;4.00;2.67;;;;;22.02;47.29;100675.91;2081464;28;47265;-49
2022/06/30 02:44:12;;;;;;;;;0.00;0.00;;;;;22.01;47.22;100670.59;2083960;28;48063;-52
2022/06/30 02:45:13;;;;;;;;;0.00;0.00;;;;;22.00;47.29;100679.69;2081966;28;48731;-50
2022/06/30 02:46:13;;;;;;;;;0.00;0.00;;;;;21.99;47.57;100676.13;2082978;28;47283;-51
2022/06/30 02:47:13;;;;;;;;;1.67;1.67;;;;;22.00;47.32;100680.56;2082107;28;47635;-51
2022/06/30 02:48:15;;;;;;;;;0.67;0.00;;;;;22.00;47.51;100682.38;2084675;28;47939;-52
2022/06/30 02:49:19;;;;;;;;;1.00;1.00;;;;;22.01;47.48;100674.16;2083626;28;47787;-48
2022/06/30 02:50:19;;;;;;;;;1.75;1.75;;;;;22.00;47.42;100677.84;2089547;28;48136;-49
2022/06/30 02:51:20;;;;;;;;;1.00;0.67;;;;;22.01;47.07;100682.28;2084225;28;47742;-53
2022/06/30 02:52:20;;;;;;;;;2.33;1.67;;;;;22.03;47.04;100687.56;2084351;28;47966;-50
2022/06/30 02:53:21;;;;;;;;;3.33;2.00;;;;;22.02;47.56;100685.84;2083936;28;47610;-51
2022/06/30 02:54:22;;;;;;;;;0.50;0.50;;;;;22.01;46.95;100684.97;2085644;28;47543;-52
2022/06/30 02:55:22;;;;;;;;;3.00;2.00;;;;;22.00;46.76;100690.50;2081772;28;47379;-49
2022/06/30 02:56:22;;;;;;;;;1.00;1.00;;;;;22.00;46.85;100693.19;2087218;28;47931;-52
2022/06/30 02:57:23;;;;;;;;;1.00;1.00;;;;;22.00;46.93;100691.34;2083353;28;47232;-51
2022/06/30 02:58:23;;;;;;;;;1.67;1.67;;;;;21.99;47.08;100686.94;2086817;28;48137;-50
2022/06/30 02:59:24;;;;;;;;;0.67;0.67;;;;;22.00;47.16;100691.34;2085608;28;47658;-51
2022/06/30 03:00:24;;;;;;;;;1.00;1.00;;;;;22.00;47.07;100687.78;2085802;28;47565;-50
2022/06/30 03:01:25;;;;;;;;;0.67;0.67;;;;;22.00;47.09;100683.25;2087465;28;47754;-51
2022/06/30 03:02:25;;;;;;;;;2.67;2.67;;;;;22.00;46.55;100676.97;2085314;28;47833;-51
2022/06/30 03:03:26;;;;;;;;;1.00;1.00;;;;;21.99;46.78;100672.56;2089418;28;47877;-51
2022/06/30 03:04:26;;;;;;;;;2.00;2.00;;;;;21.99;46.62;100676.13;2084118;28;47364;-52
2022/06/30 03:05:26;;;;;;;;;1.00;1.00;;;;;21.99;47.14;100678.81;2081286;28;47586;-52
2022/06/30 03:06:31;;;;;;;;;1.00;1.00;;;;;22.00;46.85;100677.84;2083408;28;47222;-51
2022/06/30 03:07:32;;;;;;;;;3.50;2.50;;;;;22.00;46.57;100679.69;2078819;28;47712;-51
2022/06/30 03:08:33;;;;;;;;;2.67;2.00;;;;;21.99;46.92;100678.81;2084417;28;47475;-51
2022/06/30 03:09:34;;;;;;;;;0.00;0.00;;;;;21.98;46.41;100687.03;2079534;28;46409;-50
2022/06/30 03:10:34;;;;;;;;;0.00;0.00;;;;;21.98;46.94;100693.31;2082815;28;47801;-51
2022/06/30 03:11:34;;;;;;;;;1.33;1.33;;;;;21.97;47.24;100702.34;2080155;28;47632;-51
2022/06/30 03:12:37;;;;;;;;;0.00;0.00;;;;;21.96;46.74;100700.63;2079277;28;47641;-49
2022/06/30 03:13:37;;;;;;;;;0.00;0.00;;;;;21.97;46.63;100696.09;2082852;28;47666;-48
2022/06/30 03:14:38;;;;;;;;;1.00;1.00;;;;;21.97;46.64;100696.94;2079163;28;47170;-49
2022/06/30 03:15:38;;;;;;;;;3.00;1.67;;;;;21.97;46.66;100694.25;2085798;28;47919;-48
2022/06/30 03:16:38;;;;;;;;;0.33;0.33;;;;;21.97;46.56;100698.78;2080981;28;47359;-52
2022/06/30 03:17:39;;;;;;;;;1.33;1.33;;;;;21.97;46.30;100704.19;2081750;28;47281;-49
2022/06/30 03:18:40;;;;;;;;;0.00;0.00;;;;;21.97;46.65;100699.66;2084852;28;46386;-50
2022/06/30 03:19:41;;;;;;;;;0.75;0.50;;;;;21.98;46.56;100700.56;2085518;28;47873;-53
2022/06/30 03:20:41;;;;;;;;;1.67;0.00;;;;;21.96;46.64;100689.81;2083947;28;47448;-49
2022/06/30 03:21:42;;;;;;;;;2.33;1.00;;;;;21.97;46.72;100691.56;2084243;28;47838;-49
2022/06/30 03:22:42;;;;;;;;;0.00;0.00;;;;;21.97;46.64;100686.16;2082130;28;47348;-53
2022/06/30 03:23:42;;;;;;;;;0.00;0.00;;;;;21.97;46.09;100694.25;2081570;28;47945;-53
2022/06/30 03:24:43;;;;;;;;;0.33;0.33;;;;;21.97;46.64;100693.38;2082713;28;46981;-52
2022/06/30 03:25:43;;;;;;;;;0.00;0.00;;;;;21.97;46.07;100690.69;2083311;28;47613;-51
2022/06/30 03:26:44;;;;;;;;;1.67;1.67;;;;;21.96;46.24;100686.25;2085699;28;47463;-50
2022/06/30 03:27:44;;;;;;;;;1.00;1.00;;;;;21.95;46.36;100688.09;2081206;28;47098;-50
2022/06/30 03:28:44;;;;;;;;;2.00;2.00;;;;;21.93;46.37;100678.38;2082654;28;47765;-51
2022/06/30 03:29:45;;;;;;;;;1.67;1.67;;;;;21.92;46.44;100671.25;2083877;28;47782;-50
2022/06/30 03:30:47;;;;;;;;;1.00;1.00;;;;;21.89;45.95;100669.63;2083202;28;47348;-47
2022/06/30 03:31:47;;;;;;;;;0.75;0.75;;;;;21.90;46.34;100663.25;2079803;28;47602;-49
2022/06/30 03:32:48;;;;;;;;;2.00;2.00;;;;;21.90;46.27;100665.09;2083789;28;47846;-48
2022/06/30 03:33:48;;;;;;;;;1.00;1.00;;;;;21.88;46.16;100665.19;2083647;28;47576;-48
2022/06/30 03:34:49;;;;;;;;;1.00;1.00;;;;;21.88;46.20;100672.44;2083546;28;47434;-52
2022/06/30 03:35:49;;;;;;;;;1.00;1.00;;;;;21.88;46.69;100673.31;2081602;28;47647;-48
2022/06/30 03:36:50;;;;;;;;;1.67;1.00;;;;;21.89;46.74;100671.47;2080948;28;47686;-50
2022/06/30 03:37:50;;;;;;;;;2.00;1.67;;;;;21.90;46.38;100682.16;2080644;28;47967;-50
2022/06/30 03:38:51;;;;;;;;;1.33;1.33;;;;;21.90;46.31;100675.88;2083433;28;47322;-47
2022/06/30 03:39:51;;;;;;;;;0.33;0.33;;;;;21.90;46.44;100684.84;2084375;28;47775;-47
2022/06/30 03:40:51;;;;;;;;;1.00;1.00;;;;;21.92;47.04;100698.25;2083902;28;47871;-48
2022/06/30 03:41:52;;;;;;;;;1.33;1.33;;;;;21.93;46.38;100700.84;2079060;28;45866;-48
2022/06/30 03:42:52;;;;;;;;;2.00;2.00;;;;;21.93;46.28;100700.84;2083034;28;48244;-50
2022/06/30 03:43:53;;;;;;;;;1.33;1.33;;;;;21.93;46.74;100702.69;2084037;28;47375;-50
2022/06/30 03:44:54;;;;;;;;;1.00;1.00;;;;;21.92;46.68;100700.97;2080032;28;46915;-52
2022/06/30 03:45:54;;;;;;;;;2.33;1.33;;;;;21.91;46.52;100699.22;2083558;28;47816;-49
2022/06/30 03:46:55;;;;;;;;;2.33;2.33;;;;;21.90;46.49;100700.22;2082753;28;47100;-49
2022/06/30 03:47:58;;;;;;;;;1.00;1.00;;;;;21.89;47.00;100707.44;2082290;28;47498;-48
2022/06/30 03:48:59;;;;;;;;;1.00;1.00;;;;;21.89;46.60;100712.84;2085212;28;48034;-51
2022/06/30 03:49:59;;;;;;;;;2.00;2.00;;;;;21.89;46.58;100712.84;2080151;28;47124;-48
2022/06/30 03:51:00;;;;;;;;;0.67;0.67;;;;;21.90;46.63;100714.56;2086719;28;47778;-47
2022/06/30 03:52:00;;;;;;;;;1.00;1.00;;;;;21.90;46.67;100711.88;2082968;28;47557;-51
2022/06/30 03:53:02;;;;;;;;;1.00;1.00;;;;;21.91;46.78;100710.91;2082657;28;47514;-52
2022/06/30 03:54:02;;;;;;;;;2.60;1.80;;;;;21.92;46.45;100704.53;2085588;28;48212;-48
2022/06/30 03:55:03;;;;;;;;;2.33;1.00;;;;;21.93;46.64;100702.69;2082766;28;47749;-51
2022/06/30 03:56:04;;;;;;;;;3.00;1.00;;;;;21.93;47.13;100703.56;2085508;28;48130;-50
2022/06/30 03:57:04;;;;;;;;;2.33;2.00;;;;;21.93;47.10;100695.44;2079972;28;47737;-49
2022/06/30 03:58:08;;;;;;;;;2.33;2.33;;;;;21.91;47.18;100702.78;2088523;28;47849;-50
2022/06/30 03:59:08;;;;;;;;;0.33;0.33;;;;;21.92;46.69;100706.38;2089924;28;47768;-50
2022/06/30 04:00:09;;;;;;;;;1.00;1.00;;;;;21.90;46.70;100711.00;2080028;28;47438;-49
2022/06/30 04:01:09;;;;;;;;;1.67;0.33;;;;;21.89;46.97;100711.97;2080822;28;47740;-50
2022/06/30 04:02:10;;;;;;;;;1.00;1.00;;;;;21.89;47.36;100712.84;2083334;28;47304;-53
2022/06/30 04:03:10;;;;;;;;;1.67;1.67;;;;;21.89;47.33;100703.88;2078921;28;47811;-49
2022/06/30 04:04:11;;;;;;;;;2.33;1.67;;;;;21.89;46.81;100712.84;2083311;28;47357;-48
2022/06/30 04:05:11;;;;;;;;;2.33;1.00;;;;;21.88;47.12;100711.13;2085250;28;46854;-49
2022/06/30 04:06:12;;;;;;;;;1.00;1.00;;;;;21.89;46.90;100714.69;2081699;28;47876;-50
2022/06/30 04:07:12;;;;;;;;;1.67;1.67;;;;;21.89;47.04;100714.69;2082790;28;48367;-46
2022/06/30 04:08:12;;;;;;;;;1.33;1.33;;;;;21.89;47.19;100714.69;2074781;28;45624;-51
2022/06/30 04:09:13;;;;;;;;;2.33;2.33;;;;;21.90;46.88;100719.97;2073813;28;46384;-50
2022/06/30 04:10:14;;;;;;;;;1.67;1.00;;;;;21.90;46.79;100706.47;2080785;28;48279;-49
2022/06/30 04:11:15;;;;;;;;;2.00;1.00;;;;;21.91;46.76;100710.03;2082933;28;48016;-49
2022/06/30 04:12:15;;;;;;;;;1.33;1.33;;;;;21.91;47.31;100710.03;2082320;28;47714;-52
2022/06/30 04:13:16;;;;;;;;;0.67;0.67;;;;;21.90;47.26;100711.88;2083169;28;47659;-50
2022/06/30 04:14:16;;;;;;;;;3.00;1.00;;;;;21.89;46.69;100710.16;2079287;28;47941;-52
2022/06/30 04:15:16;;;;;;;;;2.00;1.67;;;;;21.89;47.22;100706.59;2083209;28;47441;-47
2022/06/30 04:16:17;;;;;;;;;1.00;1.00;;;;;21.88;47.07;100708.41;2085629;28;47260;-51
2022/06/30 04:17:17;;;;;;;;;1.50;1.50;;;;;21.87;47.65;100709.41;2081866;28;48033;-48
2022/06/30 04:18:17;;;;;;;;;1.00;1.00;;;;;21.86;47.81;100704.97;2095468;28;47173;-51
2022/06/30 04:19:18;;;;;;;;;2.00;1.50;;;;;21.86;47.97;100702.25;2093468;28;47151;-51
2022/06/30 04:20:18;;;;;;;;;3.50;3.50;;;;;21.86;47.90;100704.09;2085162;28;47671;-50
2022/06/30 04:21:19;;;;;;;;;1.00;1.00;;;;;21.87;48.00;100700.44;2084817;28;47634;-49
2022/06/30 04:22:19;;;;;;;;;2.75;2.75;;;;;21.86;48.34;100704.97;2083946;28;47180;-51
2022/06/30 04:23:20;;;;;;;;;2.00;2.00;;;;;21.87;48.84;100705.81;2083440;28;47803;-49
2022/06/30 04:24:21;;;;;;;;;2.60;2.00;;;;;21.88;48.97;100711.13;2083136;28;47281;-51
2022/06/30 04:25:21;;;;;;;;;2.25;2.25;;;;;21.88;48.17;100707.56;2079637;28;47924;-49
2022/06/30 04:26:22;;;;;;;;;2.50;2.50;;;;;21.88;48.07;100713.81;2085984;28;47687;-50
2022/06/30 04:27:22;;;;;;;;;0.00;0.00;;;;;21.87;47.92;100714.81;2082787;28;47605;-49
2022/06/30 04:28:22;;;;;;;;;3.25;2.75;;;;;21.87;48.56;100722.91;2086502;28;47542;-49
2022/06/30 04:29:23;;;;;;;;;2.00;2.00;;;;;21.87;48.07;100725.59;2083588;28;47677;-49
2022/06/30 04:33:03;;;;;;;;;2.40;2.40;;;;;21.84;48.47;100723.09;2085418;28;47148;-47
2022/06/30 04:34:03;;;;;;;;;2.00;2.00;;;;;21.83;48.73;100724.06;2084442;28;48351;-48
2022/06/30 04:35:12;;;;;;;;;1.00;1.00;;;;;21.84;48.68;100731.19;2085626;28;47324;-47
2022/06/30 04:36:13;;;;;;;;;1.25;1.25;;;;;21.83;48.49;100728.59;2086117;28;47586;-49
2022/06/30 04:37:15;;;;;;;;;1.33;1.33;;;;;21.82;49.45;100727.75;2087574;28;47279;-52
2022/06/30 04:38:16;;;;;;;;;1.00;1.00;;;;;21.80;48.83;100729.69;2083787;28;47641;-48
2022/06/30 04:39:16;;;;;;;;;3.25;2.50;;;;;21.81;49.22;100733.25;2085569;28;48050;-50
2022/06/30 04:41:40;;;;;;;;;1.25;1.25;;;;;21.77;49.63;100729.91;2081821;28;47577;-51
2022/06/30 04:42:41;;;;;;;;;2.00;2.00;;;;;21.78;49.19;100733.47;2086505;28;47830;-48
2022/06/30 04:43:41;;;;;;;;;4.00;2.25;;;;;21.77;49.29;100735.31;2087650;28;47992;-48
2022/06/30 04:44:42;;;;;;;;;1.75;1.75;;;;;21.76;49.18;100732.72;2083762;28;46888;-48
2022/06/30 04:45:42;;;;;;;;;1.00;1.00;;;;;21.73;49.28;100734.66;2080021;28;47590;-49
2022/06/30 04:46:42;;;;;;;;;2.00;2.00;;;;;21.72;49.33;100734.72;2078629;28;46493;-51
2022/06/30 04:47:43;;;;;;;;;2.00;2.00;;;;;21.71;49.48;100741.09;2086450;28;47597;-48
2022/06/30 04:48:44;;;;;;;;;1.80;1.20;;;;;21.70;49.22;100739.38;2081634;28;47114;-52
2022/06/30 04:49:44;;;;;;;;;4.00;3.00;;;;;21.69;50.00;100735.81;2078170;28;47568;-50